createdAt,value
2022-08-11T00:01:59.048Z,1019.2
2022-08-11T00:07:27.317Z,1019.3
2022-08-11T00:13:14.973Z,1019.3
2022-08-11T00:18:29.394Z,1019.2
2022-08-11T00:24:03.689Z,1019.2
2022-08-11T00:29:51.566Z,1019.2
2022-08-11T00:35:50.292Z,1019.2
2022-08-11T00:40:53.272Z,1019.2
2022-08-11T00:46:30.508Z,1019.2
2022-08-11T00:52:04.046Z,1019.3
2022-08-11T00:57:38.157Z,1019.3
2022-08-11T01:03:17.914Z,1019.4
2022-08-11T01:08:46.188Z,1019.4
2022-08-11T01:14:26.910Z,1019.4
2022-08-11T01:20:46.261Z,1019.5
2022-08-11T01:25:31.538Z,1019.4
2022-08-11T01:31:12.179Z,1019.5
2022-08-11T01:36:43.704Z,1019.4
2022-08-11T01:42:05.245Z,1019.4
2022-08-11T01:47:56.724Z,1019.4
2022-08-11T01:53:23.718Z,1019.4
2022-08-11T01:58:55.834Z,1019.2
2022-08-11T02:04:47.975Z,1019.1
2022-08-11T02:10:25.760Z,1019.2
2022-08-11T02:16:01.554Z,1019.1
2022-08-11T02:21:18.090Z,1019.1
2022-08-11T02:27:07.875Z,1019.1
2022-08-11T02:32:25.351Z,1019.1
2022-08-11T02:38:22.152Z,1019.1
2022-08-11T02:43:35.413Z,1019.1
2022-08-11T02:49:15.981Z,1019.1
2022-08-11T02:55:04.843Z,1019.1
2022-08-11T03:00:47.731Z,1019.1
2022-08-11T03:06:03.631Z,1019
2022-08-11T03:11:33.010Z,1019.2
2022-08-11T03:17:17.274Z,1019.2
2022-08-11T03:22:48.113Z,1019.3
2022-08-11T03:28:22.672Z,1019.4
2022-08-11T03:34:13.447Z,1019.4
2022-08-11T03:39:40.863Z,1019.4
2022-08-11T03:45:05.643Z,1019.4
2022-08-11T03:50:54.945Z,1019.4
2022-08-11T03:56:34.148Z,1019.4
2022-08-11T04:01:59.006Z,1019.5
2022-08-11T04:07:27.844Z,1019.6
2022-08-11T04:13:05.590Z,1019.5
2022-08-11T04:18:38.185Z,1019.6
2022-08-11T04:24:37.466Z,1019.6
2022-08-11T04:30:00.519Z,1019.6
2022-08-11T04:35:50.874Z,1019.6
2022-08-11T04:40:58.018Z,1019.5
2022-08-11T04:46:45.913Z,1019.6
2022-08-11T04:52:14.517Z,1019.6
2022-08-11T04:57:45.062Z,1019.6
2022-08-11T05:03:28.143Z,1019.7
2022-08-11T05:09:17.443Z,1019.7
2022-08-11T05:14:55.578Z,1019.8
2022-08-11T05:20:29.121Z,1019.8
2022-08-11T05:26:09.185Z,1019.7
2022-08-11T05:31:20.133Z,1019.7
2022-08-11T05:36:56.438Z,1019.6
2022-08-11T05:42:34.780Z,1019.5
2022-08-11T05:48:13.238Z,1019.6
2022-08-11T05:53:53.346Z,1019.6
2022-08-11T05:59:25.236Z,1019.4
2022-08-11T06:05:09.870Z,1019.3
2022-08-11T06:10:34.598Z,1019.3
2022-08-11T06:16:09.218Z,1019.3
2022-08-11T06:21:49.865Z,1019.5
2022-08-11T06:27:14.497Z,1019.4
2022-08-11T06:32:47.432Z,1019.3
2022-08-11T06:38:38.695Z,1019.4
2022-08-11T06:44:05.283Z,1019.3
2022-08-11T06:49:41.578Z,1019.5
2022-08-11T06:55:56.453Z,1019.5
2022-08-11T07:00:59.012Z,1019.4
2022-08-11T08:20:13.074Z,1018.7
2022-08-11T08:25:42.648Z,1018.6
2022-08-11T08:48:29.269Z,1018.5
2022-08-11T08:53:49.997Z,1018.5
2022-08-11T09:05:19.401Z,1018.4
2022-08-11T09:50:22.635Z,1018
2022-08-11T09:55:53.204Z,1017.8
2022-08-11T10:13:43.658Z,1017.6
2022-08-11T10:18:32.817Z,1017.5
2022-08-11T10:24:18.143Z,1017.2
2022-08-11T10:29:57.500Z,1017.2
2022-08-11T10:41:12.187Z,1017
2022-08-11T10:47:02.368Z,1017
2022-08-11T10:52:31.340Z,1016.9
2022-08-11T11:09:54.496Z,1016.6
2022-08-11T11:15:16.093Z,1016.7
2022-08-11T11:20:49.687Z,1016.5
2022-08-11T11:26:31.237Z,1016.4
2022-08-11T12:06:27.180Z,1016.1
2022-08-11T12:11:50.008Z,1016
2022-08-11T12:34:38.337Z,1015.6
2022-08-11T13:54:26.619Z,1014.4
2022-08-11T13:59:59.004Z,1014.4
2022-08-11T14:45:54.508Z,1014
2022-08-11T15:08:32.162Z,1014
2022-08-11T15:14:16.165Z,1013.8
2022-08-11T15:19:54.746Z,1013.8
2022-08-11T15:31:07.661Z,1013.6
2022-08-11T15:36:47.307Z,1013.7
2022-08-11T19:34:17.524Z,1015.4
2022-08-11T19:39:56.567Z,1015.5
